sensor_id;sensor_type;location;lat;lon;timestamp;temperature;humidity
57857;DHT22;43683;48.650;9.290;2024-01-30T00:00:59;-0.90;92.70
57857;DHT22;43683;48.650;9.290;2024-01-30T00:03:24;-0.90;92.70
57857;DHT22;43683;48.650;9.290;2024-01-30T00:05:49;-0.90;92.70
57857;DHT22;43683;48.650;9.290;2024-01-30T00:08:15;-0.90;92.70
57857;DHT22;43683;48.650;9.290;2024-01-30T00:10:40;-0.90;92.70
57857;DHT22;43683;48.650;9.290;2024-01-30T00:13:06;-0.90;92.70
57857;DHT22;43683;48.650;9.290;2024-01-30T00:15:32;-0.80;92.70
57857;DHT22;43683;48.650;9.290;2024-01-30T00:17:58;-0.80;92.70
57857;DHT22;43683;48.650;9.290;2024-01-30T00:20:23;-0.70;92.70
57857;DHT22;43683;48.650;9.290;2024-01-30T00:22:49;-0.60;92.60
57857;DHT22;43683;48.650;9.290;2024-01-30T00:25:15;-0.50;92.60
57857;DHT22;43683;48.650;9.290;2024-01-30T00:27:41;-0.50;92.50
57857;DHT22;43683;48.650;9.290;2024-01-30T00:30:07;-0.40;92.60
57857;DHT22;43683;48.650;9.290;2024-01-30T00:32:32;-0.40;92.60
57857;DHT22;43683;48.650;9.290;2024-01-30T00:34:58;-0.40;92.70
57857;DHT22;43683;48.650;9.290;2024-01-30T00:37:23;-0.40;92.70
57857;DHT22;43683;48.650;9.290;2024-01-30T00:39:49;-0.40;92.80
57857;DHT22;43683;48.650;9.290;2024-01-30T00:42:14;-0.40;92.80
57857;DHT22;43683;48.650;9.290;2024-01-30T00:44:40;-0.30;92.70
57857;DHT22;43683;48.650;9.290;2024-01-30T00:47:06;-0.20;92.60
57857;DHT22;43683;48.650;9.290;2024-01-30T00:49:31;-0.30;92.70
57857;DHT22;43683;48.650;9.290;2024-01-30T00:51:57;-0.30;92.70
57857;DHT22;43683;48.650;9.290;2024-01-30T00:54:22;-0.30;92.80
57857;DHT22;43683;48.650;9.290;2024-01-30T00:56:48;-0.30;92.80
57857;DHT22;43683;48.650;9.290;2024-01-30T00:59:14;-0.30;92.90
57857;DHT22;43683;48.650;9.290;2024-01-30T01:01:40;-0.40;93.00
57857;DHT22;43683;48.650;9.290;2024-01-30T01:04:05;-0.40;93.00
57857;DHT22;43683;48.650;9.290;2024-01-30T01:06:31;-0.40;93.10
57857;DHT22;43683;48.650;9.290;2024-01-30T01:08:56;-0.40;93.20
57857;DHT22;43683;48.650;9.290;2024-01-30T01:11:22;-0.40;93.20
57857;DHT22;43683;48.650;9.290;2024-01-30T01:13:47;-0.50;93.20
57857;DHT22;43683;48.650;9.290;2024-01-30T01:16:13;-0.50;93.30
57857;DHT22;43683;48.650;9.290;2024-01-30T01:18:38;-0.50;93.20
57857;DHT22;43683;48.650;9.290;2024-01-30T01:21:04;-0.40;93.30
57857;DHT22;43683;48.650;9.290;2024-01-30T01:23:30;-0.40;93.30
57857;DHT22;43683;48.650;9.290;2024-01-30T01:25:55;-0.50;93.40
57857;DHT22;43683;48.650;9.290;2024-01-30T01:28:21;-0.50;93.50
57857;DHT22;43683;48.650;9.290;2024-01-30T01:30:46;-0.50;93.50
57857;DHT22;43683;48.650;9.290;2024-01-30T01:33:12;-0.50;93.50
57857;DHT22;43683;48.650;9.290;2024-01-30T01:35:39;-0.40;93.50
57857;DHT22;43683;48.650;9.290;2024-01-30T01:38:05;-0.40;93.50
57857;DHT22;43683;48.650;9.290;2024-01-30T01:40:31;-0.40;93.40
57857;DHT22;43683;48.650;9.290;2024-01-30T01:42:56;-0.40;93.50
57857;DHT22;43683;48.650;9.290;2024-01-30T01:45:22;-0.40;93.50
57857;DHT22;43683;48.650;9.290;2024-01-30T01:47:50;-0.40;93.50
57857;DHT22;43683;48.650;9.290;2024-01-30T01:50:17;-0.40;93.90
57857;DHT22;43683;48.650;9.290;2024-01-30T01:52:44;-0.40;93.60
57857;DHT22;43683;48.650;9.290;2024-01-30T01:55:11;-0.40;93.60
57857;DHT22;43683;48.650;9.290;2024-01-30T01:57:37;-0.30;93.60
57857;DHT22;43683;48.650;9.290;2024-01-30T02:00:03;-0.30;93.60
57857;DHT22;43683;48.650;9.290;2024-01-30T02:02:35;-0.30;93.60
57857;DHT22;43683;48.650;9.290;2024-01-30T02:05:01;-0.40;93.60
57857;DHT22;43683;48.650;9.290;2024-01-30T02:07:30;-0.40;93.60
57857;DHT22;43683;48.650;9.290;2024-01-30T02:09:55;-0.40;93.60
57857;DHT22;43683;48.650;9.290;2024-01-30T02:12:21;-0.40;93.70
57857;DHT22;43683;48.650;9.290;2024-01-30T02:14:47;-0.40;93.70
57857;DHT22;43683;48.650;9.290;2024-01-30T02:17:14;-0.40;93.80
57857;DHT22;43683;48.650;9.290;2024-01-30T02:19:39;-0.40;93.80
57857;DHT22;43683;48.650;9.290;2024-01-30T02:22:05;-0.30;93.80
57857;DHT22;43683;48.650;9.290;2024-01-30T02:24:31;-0.30;93.80
57857;DHT22;43683;48.650;9.290;2024-01-30T02:26:57;-0.10;93.70
57857;DHT22;43683;48.650;9.290;2024-01-30T02:29:22;-0.10;93.60
57857;DHT22;43683;48.650;9.290;2024-01-30T02:31:48;0.00;93.50
57857;DHT22;43683;48.650;9.290;2024-01-30T02:34:14;0.00;93.60
57857;DHT22;43683;48.650;9.290;2024-01-30T02:36:42;0.00;93.60
57857;DHT22;43683;48.650;9.290;2024-01-30T02:39:08;-0.10;93.70
57857;DHT22;43683;48.650;9.290;2024-01-30T02:41:33;-0.10;93.90
57857;DHT22;43683;48.650;9.290;2024-01-30T02:43:59;-0.20;94.00
57857;DHT22;43683;48.650;9.290;2024-01-30T02:46:25;-0.30;94.20
57857;DHT22;43683;48.650;9.290;2024-01-30T02:48:50;-0.40;94.30
57857;DHT22;43683;48.650;9.290;2024-01-30T02:51:17;-0.40;94.30
57857;DHT22;43683;48.650;9.290;2024-01-30T02:53:42;-0.40;94.20
57857;DHT22;43683;48.650;9.290;2024-01-30T02:56:08;-0.40;94.20
57857;DHT22;43683;48.650;9.290;2024-01-30T02:58:35;-0.50;94.30
57857;DHT22;43683;48.650;9.290;2024-01-30T03:01:02;-0.60;94.40
57857;DHT22;43683;48.650;9.290;2024-01-30T03:03:27;-0.70;94.50
57857;DHT22;43683;48.650;9.290;2024-01-30T03:05:53;-0.70;94.60
57857;DHT22;43683;48.650;9.290;2024-01-30T03:08:18;-0.80;94.60
57857;DHT22;43683;48.650;9.290;2024-01-30T03:10:44;-0.80;94.60
57857;DHT22;43683;48.650;9.290;2024-01-30T03:13:09;-0.80;94.60
57857;DHT22;43683;48.650;9.290;2024-01-30T03:15:35;-0.90;94.70
57857;DHT22;43683;48.650;9.290;2024-01-30T03:18:01;-0.90;94.80
57857;DHT22;43683;48.650;9.290;2024-01-30T03:20:27;-0.90;94.80
57857;DHT22;43683;48.650;9.290;2024-01-30T03:22:54;-0.90;94.80
57857;DHT22;43683;48.650;9.290;2024-01-30T03:25:20;-0.90;94.80
57857;DHT22;43683;48.650;9.290;2024-01-30T03:27:45;-0.90;94.70
57857;DHT22;43683;48.650;9.290;2024-01-30T03:30:11;-1.00;94.80
57857;DHT22;43683;48.650;9.290;2024-01-30T03:32:37;-1.00;94.80
57857;DHT22;43683;48.650;9.290;2024-01-30T03:35:02;-1.10;94.90
57857;DHT22;43683;48.650;9.290;2024-01-30T03:37:28;-1.20;94.90
57857;DHT22;43683;48.650;9.290;2024-01-30T03:39:53;-1.20;94.90
57857;DHT22;43683;48.650;9.290;2024-01-30T03:42:19;-1.30;95.00
57857;DHT22;43683;48.650;9.290;2024-01-30T03:44:44;-1.30;95.00
57857;DHT22;43683;48.650;9.290;2024-01-30T03:47:10;-1.20;95.00
57857;DHT22;43683;48.650;9.290;2024-01-30T03:49:35;-1.30;95.00
57857;DHT22;43683;48.650;9.290;2024-01-30T03:52:01;-1.30;95.00
57857;DHT22;43683;48.650;9.290;2024-01-30T03:54:26;-1.30;95.00
57857;DHT22;43683;48.650;9.290;2024-01-30T03:56:52;-1.30;95.00
57857;DHT22;43683;48.650;9.290;2024-01-30T03:59:17;-1.30;95.10
57857;DHT22;43683;48.650;9.290;2024-01-30T04:01:47;-1.40;95.20
57857;DHT22;43683;48.650;9.290;2024-01-30T04:04:13;-1.40;95.20
57857;DHT22;43683;48.650;9.290;2024-01-30T04:06:38;-1.40;95.20
57857;DHT22;43683;48.650;9.290;2024-01-30T04:09:04;-1.40;95.10
57857;DHT22;43683;48.650;9.290;2024-01-30T04:11:29;-1.40;95.10
57857;DHT22;43683;48.650;9.290;2024-01-30T04:13:55;-1.40;95.10
57857;DHT22;43683;48.650;9.290;2024-01-30T04:16:21;-1.50;95.20
57857;DHT22;43683;48.650;9.290;2024-01-30T04:18:50;-1.50;95.30
57857;DHT22;43683;48.650;9.290;2024-01-30T04:21:16;-1.50;95.20
57857;DHT22;43683;48.650;9.290;2024-01-30T04:23:42;-1.50;95.20
57857;DHT22;43683;48.650;9.290;2024-01-30T04:26:07;-1.50;95.20
57857;DHT22;43683;48.650;9.290;2024-01-30T04:28:33;-1.60;95.20
57857;DHT22;43683;48.650;9.290;2024-01-30T04:30:58;-1.60;95.20
57857;DHT22;43683;48.650;9.290;2024-01-30T04:33:24;-1.70;95.20
57857;DHT22;43683;48.650;9.290;2024-01-30T04:35:49;-1.70;95.30
57857;DHT22;43683;48.650;9.290;2024-01-30T04:38:15;-1.70;95.30
57857;DHT22;43683;48.650;9.290;2024-01-30T04:40:40;-1.70;95.30
57857;DHT22;43683;48.650;9.290;2024-01-30T04:43:06;-1.80;95.30
57857;DHT22;43683;48.650;9.290;2024-01-30T04:45:31;-1.70;95.30
57857;DHT22;43683;48.650;9.290;2024-01-30T04:47:57;-1.80;95.30
57857;DHT22;43683;48.650;9.290;2024-01-30T04:50:23;-1.80;95.30
57857;DHT22;43683;48.650;9.290;2024-01-30T04:52:48;-1.80;95.30
57857;DHT22;43683;48.650;9.290;2024-01-30T04:55:14;-1.70;95.30
57857;DHT22;43683;48.650;9.290;2024-01-30T04:57:40;-1.60;95.30
57857;DHT22;43683;48.650;9.290;2024-01-30T05:00:06;-1.60;95.20
57857;DHT22;43683;48.650;9.290;2024-01-30T05:02:32;-1.60;95.20
57857;DHT22;43683;48.650;9.290;2024-01-30T05:04:57;-1.60;95.20
57857;DHT22;43683;48.650;9.290;2024-01-30T05:07:24;-1.70;95.20
57857;DHT22;43683;48.650;9.290;2024-01-30T05:09:50;-1.80;95.30
57857;DHT22;43683;48.650;9.290;2024-01-30T05:12:15;-1.80;95.40
57857;DHT22;43683;48.650;9.290;2024-01-30T05:14:41;-1.90;95.40
57857;DHT22;43683;48.650;9.290;2024-01-30T05:17:06;-1.90;95.50
57857;DHT22;43683;48.650;9.290;2024-01-30T05:19:34;-1.90;95.50
57857;DHT22;43683;48.650;9.290;2024-01-30T05:22:00;-2.00;95.40
57857;DHT22;43683;48.650;9.290;2024-01-30T05:24:25;-2.00;95.30
57857;DHT22;43683;48.650;9.290;2024-01-30T05:26:51;-2.00;95.30
57857;DHT22;43683;48.650;9.290;2024-01-30T05:29:16;-2.00;95.40
57857;DHT22;43683;48.650;9.290;2024-01-30T05:31:42;-2.10;95.40
57857;DHT22;43683;48.650;9.290;2024-01-30T05:34:07;-2.00;95.50
57857;DHT22;43683;48.650;9.290;2024-01-30T05:36:34;-2.00;95.50
57857;DHT22;43683;48.650;9.290;2024-01-30T05:39:00;-2.00;95.50
57857;DHT22;43683;48.650;9.290;2024-01-30T05:41:25;-2.10;95.50
57857;DHT22;43683;48.650;9.290;2024-01-30T05:43:51;-2.10;95.50
57857;DHT22;43683;48.650;9.290;2024-01-30T05:46:16;-2.10;95.40
57857;DHT22;43683;48.650;9.290;2024-01-30T05:48:42;-2.10;95.40
57857;DHT22;43683;48.650;9.290;2024-01-30T05:51:08;-2.00;95.40
57857;DHT22;43683;48.650;9.290;2024-01-30T05:53:33;-1.90;95.40
57857;DHT22;43683;48.650;9.290;2024-01-30T05:56:02;-1.80;95.30
57857;DHT22;43683;48.650;9.290;2024-01-30T05:58:28;-1.80;95.20
57857;DHT22;43683;48.650;9.290;2024-01-30T06:00:54;-1.80;95.30
57857;DHT22;43683;48.650;9.290;2024-01-30T06:03:19;-1.70;95.30
57857;DHT22;43683;48.650;9.290;2024-01-30T06:05:45;-1.70;95.30
57857;DHT22;43683;48.650;9.290;2024-01-30T06:08:10;-1.70;95.30
57857;DHT22;43683;48.650;9.290;2024-01-30T06:10:36;-1.70;95.30
57857;DHT22;43683;48.650;9.290;2024-01-30T06:13:01;-1.60;95.30
57857;DHT22;43683;48.650;9.290;2024-01-30T06:15:27;-1.60;95.30
57857;DHT22;43683;48.650;9.290;2024-01-30T06:17:55;-1.60;95.50
57857;DHT22;43683;48.650;9.290;2024-01-30T06:20:20;-1.60;95.40
57857;DHT22;43683;48.650;9.290;2024-01-30T06:22:46;-1.60;95.40
57857;DHT22;43683;48.650;9.290;2024-01-30T06:25:12;-1.60;95.40
57857;DHT22;43683;48.650;9.290;2024-01-30T06:27:37;-1.60;95.40
57857;DHT22;43683;48.650;9.290;2024-01-30T06:30:04;-1.60;95.40
57857;DHT22;43683;48.650;9.290;2024-01-30T06:32:30;-1.60;95.50
57857;DHT22;43683;48.650;9.290;2024-01-30T06:35:00;-1.70;95.60
57857;DHT22;43683;48.650;9.290;2024-01-30T06:37:25;-1.70;95.70
57857;DHT22;43683;48.650;9.290;2024-01-30T06:39:51;-1.70;95.80
57857;DHT22;43683;48.650;9.290;2024-01-30T06:42:18;-1.70;95.80
57857;DHT22;43683;48.650;9.290;2024-01-30T06:44:43;-1.70;95.80
57857;DHT22;43683;48.650;9.290;2024-01-30T06:47:09;-1.70;95.80
57857;DHT22;43683;48.650;9.290;2024-01-30T06:49:35;-1.60;95.80
57857;DHT22;43683;48.650;9.290;2024-01-30T06:52:04;-1.60;95.80
57857;DHT22;43683;48.650;9.290;2024-01-30T06:54:30;-1.60;95.80
57857;DHT22;43683;48.650;9.290;2024-01-30T06:56:56;-1.60;95.90
57857;DHT22;43683;48.650;9.290;2024-01-30T06:59:22;-1.60;95.90
57857;DHT22;43683;48.650;9.290;2024-01-30T07:01:47;-1.70;95.90
57857;DHT22;43683;48.650;9.290;2024-01-30T07:04:13;-1.70;95.90
57857;DHT22;43683;48.650;9.290;2024-01-30T07:06:38;-1.60;96.00
57857;DHT22;43683;48.650;9.290;2024-01-30T07:09:04;-1.60;95.90
57857;DHT22;43683;48.650;9.290;2024-01-30T07:11:30;-1.60;95.90
57857;DHT22;43683;48.650;9.290;2024-01-30T07:13:56;-1.60;95.90
57857;DHT22;43683;48.650;9.290;2024-01-30T07:16:21;-1.50;95.90
57857;DHT22;43683;48.650;9.290;2024-01-30T07:18:47;-1.50;95.90
57857;DHT22;43683;48.650;9.290;2024-01-30T07:21:13;-1.40;95.80
57857;DHT22;43683;48.650;9.290;2024-01-30T07:23:39;-1.40;95.70
57857;DHT22;43683;48.650;9.290;2024-01-30T07:26:05;-1.30;95.80
57857;DHT22;43683;48.650;9.290;2024-01-30T07:28:31;-1.30;95.80
57857;DHT22;43683;48.650;9.290;2024-01-30T07:30:57;-1.20;95.90
57857;DHT22;43683;48.650;9.290;2024-01-30T07:33:23;-1.20;95.90
57857;DHT22;43683;48.650;9.290;2024-01-30T07:35:48;-1.10;95.90
57857;DHT22;43683;48.650;9.290;2024-01-30T07:38:14;-1.00;96.00
57857;DHT22;43683;48.650;9.290;2024-01-30T07:40:40;-0.90;96.00
57857;DHT22;43683;48.650;9.290;2024-01-30T07:43:06;-0.80;96.10
57857;DHT22;43683;48.650;9.290;2024-01-30T07:45:32;-0.60;96.20
57857;DHT22;43683;48.650;9.290;2024-01-30T07:47:58;-0.60;96.30
57857;DHT22;43683;48.650;9.290;2024-01-30T07:50:25;-0.50;96.50
57857;DHT22;43683;48.650;9.290;2024-01-30T07:52:50;-0.40;96.50
57857;DHT22;43683;48.650;9.290;2024-01-30T07:55:20;-0.30;96.60
57857;DHT22;43683;48.650;9.290;2024-01-30T07:57:47;-0.10;96.80
57857;DHT22;43683;48.650;9.290;2024-01-30T08:00:13;0.10;97.00
57857;DHT22;43683;48.650;9.290;2024-01-30T08:02:39;0.30;97.20
57857;DHT22;43683;48.650;9.290;2024-01-30T08:05:04;0.40;97.20
57857;DHT22;43683;48.650;9.290;2024-01-30T08:07:30;0.60;97.20
57857;DHT22;43683;48.650;9.290;2024-01-30T08:09:55;0.70;97.20
57857;DHT22;43683;48.650;9.290;2024-01-30T08:12:21;0.80;97.10
57857;DHT22;43683;48.650;9.290;2024-01-30T08:14:46;0.90;97.00
57857;DHT22;43683;48.650;9.290;2024-01-30T08:17:12;1.00;97.00
57857;DHT22;43683;48.650;9.290;2024-01-30T08:19:38;1.20;97.10
57857;DHT22;43683;48.650;9.290;2024-01-30T08:22:03;1.40;97.20
57857;DHT22;43683;48.650;9.290;2024-01-30T08:24:29;1.60;97.30
57857;DHT22;43683;48.650;9.290;2024-01-30T08:26:54;1.80;97.30
57857;DHT22;43683;48.650;9.290;2024-01-30T08:29:20;1.90;97.20
57857;DHT22;43683;48.650;9.290;2024-01-30T08:31:46;2.10;97.10
57857;DHT22;43683;48.650;9.290;2024-01-30T08:34:11;2.30;96.90
57857;DHT22;43683;48.650;9.290;2024-01-30T08:36:37;2.50;96.70
57857;DHT22;43683;48.650;9.290;2024-01-30T08:39:02;2.80;96.40
57857;DHT22;43683;48.650;9.290;2024-01-30T08:41:28;3.20;96.20
57857;DHT22;43683;48.650;9.290;2024-01-30T08:43:53;3.40;95.90
57857;DHT22;43683;48.650;9.290;2024-01-30T08:46:19;3.70;95.80
57857;DHT22;43683;48.650;9.290;2024-01-30T08:48:46;3.90;95.90
57857;DHT22;43683;48.650;9.290;2024-01-30T08:51:12;4.20;95.90
57857;DHT22;43683;48.650;9.290;2024-01-30T08:53:37;4.50;95.80
57857;DHT22;43683;48.650;9.290;2024-01-30T08:56:03;4.70;95.60
57857;DHT22;43683;48.650;9.290;2024-01-30T08:58:29;5.00;95.50
57857;DHT22;43683;48.650;9.290;2024-01-30T09:00:55;5.20;95.20
57857;DHT22;43683;48.650;9.290;2024-01-30T09:03:20;5.40;95.00
57857;DHT22;43683;48.650;9.290;2024-01-30T09:05:46;5.50;94.70
57857;DHT22;43683;48.650;9.290;2024-01-30T09:08:11;5.80;94.60
57857;DHT22;43683;48.650;9.290;2024-01-30T09:10:37;6.00;94.20
57857;DHT22;43683;48.650;9.290;2024-01-30T09:13:02;6.10;93.80
57857;DHT22;43683;48.650;9.290;2024-01-30T09:15:28;6.30;93.50
57857;DHT22;43683;48.650;9.290;2024-01-30T09:17:54;6.40;93.10
57857;DHT22;43683;48.650;9.290;2024-01-30T09:20:19;6.60;92.90
57857;DHT22;43683;48.650;9.290;2024-01-30T09:22:47;6.80;92.60
57857;DHT22;43683;48.650;9.290;2024-01-30T09:25:13;6.90;92.40
57857;DHT22;43683;48.650;9.290;2024-01-30T09:27:38;7.20;92.10
57857;DHT22;43683;48.650;9.290;2024-01-30T09:30:06;7.30;91.50
57857;DHT22;43683;48.650;9.290;2024-01-30T09:32:31;7.30;91.20
57857;DHT22;43683;48.650;9.290;2024-01-30T09:34:57;7.30;90.80
57857;DHT22;43683;48.650;9.290;2024-01-30T09:37:22;7.30;90.40
57857;DHT22;43683;48.650;9.290;2024-01-30T09:39:48;7.30;90.30
57857;DHT22;43683;48.650;9.290;2024-01-30T09:42:31;7.30;90.10
57857;DHT22;43683;48.650;9.290;2024-01-30T09:44:59;7.30;89.40
57857;DHT22;43683;48.650;9.290;2024-01-30T09:47:26;7.50;89.40
57857;DHT22;43683;48.650;9.290;2024-01-30T09:49:52;7.70;88.50
57857;DHT22;43683;48.650;9.290;2024-01-30T09:52:18;7.90;87.70
57857;DHT22;43683;48.650;9.290;2024-01-30T09:54:45;8.20;86.70
57857;DHT22;43683;48.650;9.290;2024-01-30T09:57:11;8.30;85.50
57857;DHT22;43683;48.650;9.290;2024-01-30T09:59:37;8.50;85.00
57857;DHT22;43683;48.650;9.290;2024-01-30T10:02:02;8.50;84.20
57857;DHT22;43683;48.650;9.290;2024-01-30T10:04:30;8.50;83.70
57857;DHT22;43683;48.650;9.290;2024-01-30T10:06:55;8.60;83.20
57857;DHT22;43683;48.650;9.290;2024-01-30T10:09:21;8.60;82.20
57857;DHT22;43683;48.650;9.290;2024-01-30T10:11:48;8.50;81.30
57857;DHT22;43683;48.650;9.290;2024-01-30T10:14:14;8.50;80.80
57857;DHT22;43683;48.650;9.290;2024-01-30T10:16:39;8.60;80.70
57857;DHT22;43683;48.650;9.290;2024-01-30T10:19:05;8.60;80.40
57857;DHT22;43683;48.650;9.290;2024-01-30T10:21:30;8.70;80.00
57857;DHT22;43683;48.650;9.290;2024-01-30T10:23:56;8.70;79.30
57857;DHT22;43683;48.650;9.290;2024-01-30T10:26:21;8.70;79.00
57857;DHT22;43683;48.650;9.290;2024-01-30T10:28:48;8.70;78.50
57857;DHT22;43683;48.650;9.290;2024-01-30T10:31:18;8.80;77.90
57857;DHT22;43683;48.650;9.290;2024-01-30T10:33:46;8.80;77.50
57857;DHT22;43683;48.650;9.290;2024-01-30T10:36:14;8.90;77.20
57857;DHT22;43683;48.650;9.290;2024-01-30T10:38:43;8.90;76.70
57857;DHT22;43683;48.650;9.290;2024-01-30T10:41:11;9.00;76.40
57857;DHT22;43683;48.650;9.290;2024-01-30T10:43:41;9.10;75.90
57857;DHT22;43683;48.650;9.290;2024-01-30T10:46:15;9.10;75.50
57857;DHT22;43683;48.650;9.290;2024-01-30T10:48:43;9.20;75.10
57857;DHT22;43683;48.650;9.290;2024-01-30T10:51:13;9.30;75.00
57857;DHT22;43683;48.650;9.290;2024-01-30T10:53:39;9.40;74.90
57857;DHT22;43683;48.650;9.290;2024-01-30T10:56:06;9.40;74.90
57857;DHT22;43683;48.650;9.290;2024-01-30T10:58:34;9.60;74.60
57857;DHT22;43683;48.650;9.290;2024-01-30T11:01:00;9.60;74.80
57857;DHT22;43683;48.650;9.290;2024-01-30T11:03:26;9.70;74.40
57857;DHT22;43683;48.650;9.290;2024-01-30T11:05:52;9.80;74.10
57857;DHT22;43683;48.650;9.290;2024-01-30T11:08:24;9.80;73.60
57857;DHT22;43683;48.650;9.290;2024-01-30T11:10:55;9.90;72.90
57857;DHT22;43683;48.650;9.290;2024-01-30T11:13:21;10.00;72.60
57857;DHT22;43683;48.650;9.290;2024-01-30T11:15:48;10.10;72.50
57857;DHT22;43683;48.650;9.290;2024-01-30T11:18:23;10.20;72.10
57857;DHT22;43683;48.650;9.290;2024-01-30T11:20:49;10.30;71.70
57857;DHT22;43683;48.650;9.290;2024-01-30T11:23:15;10.30;71.90
57857;DHT22;43683;48.650;9.290;2024-01-30T11:25:43;10.40;71.80
57857;DHT22;43683;48.650;9.290;2024-01-30T11:28:13;10.50;71.40
57857;DHT22;43683;48.650;9.290;2024-01-30T11:30:40;10.50;71.20
57857;DHT22;43683;48.650;9.290;2024-01-30T11:33:13;10.50;71.30
57857;DHT22;43683;48.650;9.290;2024-01-30T11:35:44;10.50;70.60
57857;DHT22;43683;48.650;9.290;2024-01-30T11:38:15;10.50;70.50
57857;DHT22;43683;48.650;9.290;2024-01-30T11:40:41;10.50;70.30
57857;DHT22;43683;48.650;9.290;2024-01-30T11:43:07;10.60;70.10
57857;DHT22;43683;48.650;9.290;2024-01-30T11:45:34;10.60;70.00
57857;DHT22;43683;48.650;9.290;2024-01-30T11:48:00;10.60;69.80
57857;DHT22;43683;48.650;9.290;2024-01-30T11:50:32;10.60;69.70
57857;DHT22;43683;48.650;9.290;2024-01-30T11:53:02;10.50;69.40
57857;DHT22;43683;48.650;9.290;2024-01-30T11:55:29;10.60;69.10
57857;DHT22;43683;48.650;9.290;2024-01-30T11:57:59;10.60;69.00
57857;DHT22;43683;48.650;9.290;2024-01-30T12:00:25;10.60;69.10
57857;DHT22;43683;48.650;9.290;2024-01-30T12:02:53;10.60;68.90
57857;DHT22;43683;48.650;9.290;2024-01-30T12:05:22;10.70;68.50
57857;DHT22;43683;48.650;9.290;2024-01-30T12:07:47;10.60;68.70
57857;DHT22;43683;48.650;9.290;2024-01-30T12:10:14;10.70;68.80
57857;DHT22;43683;48.650;9.290;2024-01-30T12:12:42;10.70;68.80
57857;DHT22;43683;48.650;9.290;2024-01-30T12:15:08;10.80;68.70
57857;DHT22;43683;48.650;9.290;2024-01-30T12:17:35;10.80;68.50
57857;DHT22;43683;48.650;9.290;2024-01-30T12:20:07;10.80;68.60
57857;DHT22;43683;48.650;9.290;2024-01-30T12:22:38;10.90;68.30
57857;DHT22;43683;48.650;9.290;2024-01-30T12:25:11;11.00;68.10
57857;DHT22;43683;48.650;9.290;2024-01-30T12:27:37;11.10;67.90
57857;DHT22;43683;48.650;9.290;2024-01-30T12:30:07;11.20;67.70
57857;DHT22;43683;48.650;9.290;2024-01-30T12:32:36;11.40;67.20
57857;DHT22;43683;48.650;9.290;2024-01-30T12:35:03;11.40;67.10
57857;DHT22;43683;48.650;9.290;2024-01-30T12:37:29;11.50;67.00
57857;DHT22;43683;48.650;9.290;2024-01-30T12:39:57;11.60;66.70
57857;DHT22;43683;48.650;9.290;2024-01-30T12:42:22;11.70;66.60
57857;DHT22;43683;48.650;9.290;2024-01-30T12:44:48;11.70;66.60
57857;DHT22;43683;48.650;9.290;2024-01-30T12:47:14;11.70;66.30
57857;DHT22;43683;48.650;9.290;2024-01-30T12:49:44;11.70;66.40
57857;DHT22;43683;48.650;9.290;2024-01-30T12:52:14;11.70;66.30
57857;DHT22;43683;48.650;9.290;2024-01-30T12:54:39;11.70;66.30
57857;DHT22;43683;48.650;9.290;2024-01-30T12:57:05;11.70;66.50
57857;DHT22;43683;48.650;9.290;2024-01-30T12:59:31;11.80;66.30
57857;DHT22;43683;48.650;9.290;2024-01-30T13:01:59;12.00;65.90
57857;DHT22;43683;48.650;9.290;2024-01-30T13:04:25;12.20;65.50
57857;DHT22;43683;48.650;9.290;2024-01-30T13:06:50;12.50;65.10
57857;DHT22;43683;48.650;9.290;2024-01-30T13:09:16;12.90;64.50
57857;DHT22;43683;48.650;9.290;2024-01-30T13:11:41;13.00;64.00
57857;DHT22;43683;48.650;9.290;2024-01-30T13:14:07;13.00;63.80
57857;DHT22;43683;48.650;9.290;2024-01-30T13:16:33;13.10;63.70
57857;DHT22;43683;48.650;9.290;2024-01-30T13:18:58;13.00;63.50
57857;DHT22;43683;48.650;9.290;2024-01-30T13:21:24;12.90;63.50
57857;DHT22;43683;48.650;9.290;2024-01-30T13:23:49;12.90;63.80
57857;DHT22;43683;48.650;9.290;2024-01-30T13:26:18;12.90;63.80
57857;DHT22;43683;48.650;9.290;2024-01-30T13:28:44;12.80;63.80
57857;DHT22;43683;48.650;9.290;2024-01-30T13:31:09;12.80;63.80
57857;DHT22;43683;48.650;9.290;2024-01-30T13:33:35;12.70;64.00
57857;DHT22;43683;48.650;9.290;2024-01-30T13:36:00;12.60;64.00
57857;DHT22;43683;48.650;9.290;2024-01-30T13:38:26;12.50;64.10
57857;DHT22;43683;48.650;9.290;2024-01-30T13:40:51;12.50;64.00
57857;DHT22;43683;48.650;9.290;2024-01-30T13:43:17;12.50;63.80
57857;DHT22;43683;48.650;9.290;2024-01-30T13:45:43;12.50;63.70
57857;DHT22;43683;48.650;9.290;2024-01-30T13:48:09;12.40;63.80
57857;DHT22;43683;48.650;9.290;2024-01-30T13:50:34;12.30;63.90
57857;DHT22;43683;48.650;9.290;2024-01-30T13:53:00;12.30;64.00
57857;DHT22;43683;48.650;9.290;2024-01-30T13:55:25;12.30;63.90
57857;DHT22;43683;48.650;9.290;2024-01-30T13:57:51;12.30;64.00
57857;DHT22;43683;48.650;9.290;2024-01-30T14:00:16;12.30;63.90
57857;DHT22;43683;48.650;9.290;2024-01-30T14:02:42;12.40;63.90
57857;DHT22;43683;48.650;9.290;2024-01-30T14:05:08;12.60;63.80
57857;DHT22;43683;48.650;9.290;2024-01-30T14:07:35;12.70;63.90
57857;DHT22;43683;48.650;9.290;2024-01-30T14:10:01;12.70;63.60
57857;DHT22;43683;48.650;9.290;2024-01-30T14:12:26;12.50;63.80
57857;DHT22;43683;48.650;9.290;2024-01-30T14:14:52;12.40;64.00
57857;DHT22;43683;48.650;9.290;2024-01-30T14:17:17;12.30;64.20
57857;DHT22;43683;48.650;9.290;2024-01-30T14:19:43;12.20;64.40
57857;DHT22;43683;48.650;9.290;2024-01-30T14:22:09;12.20;64.40
57857;DHT22;43683;48.650;9.290;2024-01-30T14:24:34;12.10;64.40
57857;DHT22;43683;48.650;9.290;2024-01-30T14:27:00;12.00;64.50
57857;DHT22;43683;48.650;9.290;2024-01-30T14:29:25;11.90;64.50
57857;DHT22;43683;48.650;9.290;2024-01-30T14:31:51;11.80;64.80
57857;DHT22;43683;48.650;9.290;2024-01-30T14:34:16;11.70;65.00
57857;DHT22;43683;48.650;9.290;2024-01-30T14:36:42;11.60;65.10
57857;DHT22;43683;48.650;9.290;2024-01-30T14:39:08;11.60;65.30
57857;DHT22;43683;48.650;9.290;2024-01-30T14:41:35;11.50;65.40
57857;DHT22;43683;48.650;9.290;2024-01-30T14:44:00;11.40;65.50
57857;DHT22;43683;48.650;9.290;2024-01-30T14:46:26;11.40;65.30
57857;DHT22;43683;48.650;9.290;2024-01-30T14:48:52;11.40;65.10
57857;DHT22;43683;48.650;9.290;2024-01-30T14:51:18;11.30;64.80
57857;DHT22;43683;48.650;9.290;2024-01-30T14:53:43;11.40;65.30
57857;DHT22;43683;48.650;9.290;2024-01-30T14:56:10;11.30;64.60
57857;DHT22;43683;48.650;9.290;2024-01-30T14:58:36;11.20;65.30
57857;DHT22;43683;48.650;9.290;2024-01-30T15:01:02;11.20;64.60
57857;DHT22;43683;48.650;9.290;2024-01-30T15:03:28;11.10;64.60
57857;DHT22;43683;48.650;9.290;2024-01-30T15:05:56;10.90;64.70
57857;DHT22;43683;48.650;9.290;2024-01-30T15:08:22;10.80;64.70
57857;DHT22;43683;48.650;9.290;2024-01-30T15:10:47;10.70;64.80
57857;DHT22;43683;48.650;9.290;2024-01-30T15:13:13;10.60;65.00
57857;DHT22;43683;48.650;9.290;2024-01-30T15:15:38;10.50;65.10
57857;DHT22;43683;48.650;9.290;2024-01-30T15:18:04;10.40;65.30
57857;DHT22;43683;48.650;9.290;2024-01-30T15:20:29;10.20;65.50
57857;DHT22;43683;48.650;9.290;2024-01-30T15:22:57;10.10;65.70
57857;DHT22;43683;48.650;9.290;2024-01-30T15:25:22;10.00;66.00
57857;DHT22;43683;48.650;9.290;2024-01-30T15:27:48;9.80;66.30